Aviation Digital Data Service (ADDS)

Output produced by METARs form (0942 UTC 20 September 2019)
found at http://aviationweather.gov/metar/data/
 
KEGE 200520Z 2006/2106 10006KT P6SM SKC 
     FM201000 18007KT P6SM SCT100 
     FM201600 23013G24KT P6SM SCT100 
     FM201800 23020G35KT P6SM SCT090 BKN100 
     FM210100 25015KT P6SM FEW200